Time;durP1;ratioP1;P1;durP2;ratioP2;P2;SDS_P1;SDS_P2;PMS_P1;PMS_P2;Temp;Humidity;BMP_temperature;BMP_pressure;BME280_temperature;BME280_humidity;BME280_pressure;Samples;Min_cycle;Max_cycle;Signal;HPM_P1;HPM_P2
2021/10/29 00:00:39;;;;;;;36.22;15.98;;;;;;;;;;5036424;28;20059;-61
2021/10/29 00:03:05;;;;;;;41.00;15.57;;;;;;;;;;5070722;28;20035;-61
2021/10/29 00:05:32;;;;;;;41.85;16.48;;;;;;;;;;5068396;28;20081;-60
2021/10/29 00:08:00;;;;;;;39.55;17.38;;;;;;;;;;5071041;28;20058;-61
2021/10/29 00:10:29;;;;;;;33.20;14.70;;;;;;;;;;5051500;28;20016;-60
2021/10/29 00:12:55;;;;;;;41.55;16.55;;;;;;;;;;5070689;28;20040;-61
2021/10/29 00:15:23;;;;;;;35.60;15.93;;;;;;;;;;5053629;28;20015;-61
2021/10/29 00:17:49;;;;;;;36.92;15.52;;;;;;;;;;5037360;28;20027;-61
2021/10/29 00:20:14;;;;;;;41.95;16.05;;;;;;;;;;5032310;28;20113;-60
2021/10/29 00:22:40;;;;;;;37.63;14.70;;;;;;;;;;5076461;28;20043;-61
2021/10/29 00:25:10;;;;;;;35.78;16.85;;;;;;;;;;5073088;28;20036;-60
2021/10/29 00:27:38;;;;;;;31.98;14.88;;;;;;;;;;5068070;28;20780;-61
2021/10/29 00:30:05;;;;;;;39.40;15.30;;;;;;;;;;5057287;28;20696;-59
2021/10/29 00:32:38;;;;;;;36.55;16.75;;;;;;;;;;5062567;28;20079;-60
2021/10/29 00:35:06;;;;;;;37.33;15.68;;;;;;;;;;5040712;28;20487;-61
2021/10/29 00:37:38;;;;;;;41.05;15.90;;;;;;;;;;5075737;28;20475;-62
2021/10/29 00:40:08;;;;;;;47.83;18.25;;;;;;;;;;5072338;28;20062;-62
2021/10/29 00:42:36;;;;;;;38.83;16.63;;;;;;;;;;5074834;28;20050;-61
2021/10/29 00:45:07;;;;;;;37.13;15.68;;;;;;;;;;5073312;28;20074;-59
2021/10/29 00:47:35;;;;;;;41.17;17.13;;;;;;;;;;5074937;28;20036;-60
2021/10/29 00:50:08;;;;;;;37.13;15.52;;;;;;;;;;5041834;28;20415;-61
2021/10/29 00:52:39;;;;;;;37.08;15.73;;;;;;;;;;5076149;28;20038;-61
2021/10/29 00:55:05;;;;;;;39.40;16.77;;;;;;;;;;5075362;28;20317;-60
2021/10/29 00:57:36;;;;;;;35.08;14.80;;;;;;;;;;5056873;28;20036;-59
2021/10/29 01:00:04;;;;;;;39.95;16.05;;;;;;;;;;5074787;28;20035;-61
2021/10/29 01:02:31;;;;;;;35.92;15.63;;;;;;;;;;5073440;28;20035;-60
2021/10/29 01:05:04;;;;;;;41.20;16.00;;;;;;;;;;5056744;28;20040;-59
2021/10/29 01:07:34;;;;;;;35.60;15.32;;;;;;;;;;5056532;28;20032;-63
2021/10/29 01:10:06;;;;;;;43.72;17.05;;;;;;;;;;5075068;28;20419;-61
2021/10/29 01:12:33;;;;;;;43.85;16.77;;;;;;;;;;5055713;28;20043;-60
2021/10/29 01:15:00;;;;;;;42.22;17.38;;;;;;;;;;5055334;28;20028;-61
2021/10/29 01:17:26;;;;;;;37.47;16.48;;;;;;;;;;5058539;28;20054;-60
2021/10/29 01:19:55;;;;;;;36.05;15.82;;;;;;;;;;5070457;28;20028;-62
2021/10/29 01:22:23;;;;;;;45.47;17.77;;;;;;;;;;5057565;28;20054;-61
2021/10/29 01:24:49;;;;;;;39.25;16.27;;;;;;;;;;5072485;28;20523;-60
2021/10/29 01:27:18;;;;;;;35.20;15.82;;;;;;;;;;5074987;28;20033;-60
2021/10/29 01:29:49;;;;;;;38.15;15.88;;;;;;;;;;5054942;28;20032;-61
2021/10/29 01:32:20;;;;;;;37.80;16.17;;;;;;;;;;5059061;28;20036;-61
2021/10/29 01:34:46;;;;;;;33.97;15.63;;;;;;;;;;5073893;28;20035;-61
2021/10/29 01:37:14;;;;;;;42.80;16.23;;;;;;;;;;5071053;28;20032;-62
2021/10/29 01:39:40;;;;;;;45.83;17.20;;;;;;;;;;5056164;28;21972;-59
2021/10/29 01:42:06;;;;;;;40.10;17.08;;;;;;;;;;5055366;28;20027;-61
2021/10/29 01:44:35;;;;;;;47.05;18.58;;;;;;;;;;5072503;28;20462;-60
2021/10/29 01:47:02;;;;;;;48.53;16.48;;;;;;;;;;5057273;28;20035;-61
2021/10/29 01:49:31;;;;;;;39.08;17.35;;;;;;;;;;5054724;28;20047;-63
2021/10/29 01:52:00;;;;;;;36.65;16.48;;;;;;;;;;5052693;28;20579;-61
2021/10/29 01:54:25;;;;;;;41.88;15.75;;;;;;;;;;5071711;28;20032;-61
2021/10/29 01:56:56;;;;;;;42.15;17.00;;;;;;;;;;5058172;28;20024;-60
2021/10/29 01:59:24;;;;;;;41.97;16.63;;;;;;;;;;5072503;28;20031;-61
2021/10/29 02:01:53;;;;;;;39.72;15.80;;;;;;;;;;5075674;28;20032;-60
2021/10/29 02:04:20;;;;;;;36.70;15.93;;;;;;;;;;5069986;28;21964;-60
2021/10/29 02:06:48;;;;;;;42.38;16.38;;;;;;;;;;5074327;28;20119;-62
2021/10/29 02:09:16;;;;;;;39.80;15.50;;;;;;;;;;5058573;28;20719;-61
2021/10/29 02:11:47;;;;;;;39.13;15.50;;;;;;;;;;5055691;28;20081;-61
2021/10/29 02:14:15;;;;;;;38.60;15.75;;;;;;;;;;5071597;28;20126;-60
2021/10/29 02:16:40;;;;;;;30.58;14.70;;;;;;;;;;5031247;28;20555;-59
2021/10/29 02:19:06;;;;;;;32.92;13.90;;;;;;;;;;5071846;28;20038;-60
2021/10/29 02:21:31;;;;;;;44.28;15.70;;;;;;;;;;5058741;28;20051;-60
2021/10/29 02:24:00;;;;;;;37.42;14.77;;;;;;;;;;5073516;28;20039;-60
2021/10/29 02:26:25;;;;;;;41.72;16.10;;;;;;;;;;5072184;28;22145;-61
2021/10/29 02:28:51;;;;;;;42.75;15.48;;;;;;;;;;5072632;28;20076;-61
2021/10/29 02:31:18;;;;;;;36.95;15.70;;;;;;;;;;5071190;28;20028;-61
2021/10/29 02:33:43;;;;;;;39.60;15.43;;;;;;;;;;5055904;28;20019;-59
2021/10/29 02:36:11;;;;;;;39.22;16.60;;;;;;;;;;5053266;28;20036;-59
2021/10/29 02:38:41;;;;;;;34.78;15.93;;;;;;;;;;5057221;28;20059;-60
2021/10/29 02:41:10;;;;;;;32.42;14.38;;;;;;;;;;5071227;28;20046;-61
2021/10/29 02:43:35;;;;;;;39.80;15.35;;;;;;;;;;5070620;28;20024;-60
2021/10/29 02:46:01;;;;;;;37.70;16.30;;;;;;;;;;5074788;28;20040;-60
2021/10/29 02:48:32;;;;;;;32.15;14.20;;;;;;;;;;5074691;28;20024;-60
2021/10/29 02:51:05;;;;;;;34.72;15.55;;;;;;;;;;5054261;28;20055;-61
2021/10/29 02:53:35;;;;;;;41.83;16.25;;;;;;;;;;5071372;28;20111;-60
2021/10/29 02:56:03;;;;;;;37.67;15.45;;;;;;;;;;5052105;28;20024;-62
2021/10/29 02:58:32;;;;;;;36.63;14.20;;;;;;;;;;5072934;28;20193;-61
2021/10/29 03:00:58;;;;;;;42.83;14.52;;;;;;;;;;5070514;28;20019;-61
2021/10/29 03:03:27;;;;;;;31.17;14.35;;;;;;;;;;5072708;28;20038;-62
2021/10/29 03:05:52;;;;;;;36.97;13.98;;;;;;;;;;5070943;28;20078;-61
2021/10/29 03:08:20;;;;;;;36.38;13.95;;;;;;;;;;5061611;28;20099;-60
2021/10/29 03:10:46;;;;;;;37.97;13.40;;;;;;;;;;5070306;28;20043;-62
2021/10/29 03:13:14;;;;;;;33.13;14.77;;;;;;;;;;5037789;28;20403;-61
2021/10/29 03:15:43;;;;;;;35.95;13.77;;;;;;;;;;5038772;28;20034;-61
2021/10/29 03:18:11;;;;;;;30.80;14.93;;;;;;;;;;5070878;28;20036;-61
2021/10/29 03:20:36;;;;;;;32.13;13.45;;;;;;;;;;5070961;28;20056;-60
2021/10/29 03:23:07;;;;;;;37.85;14.23;;;;;;;;;;5072605;28;20038;-61
2021/10/29 03:25:32;;;;;;;28.52;12.40;;;;;;;;;;5069577;28;22048;-61
2021/10/29 03:28:01;;;;;;;31.10;13.80;;;;;;;;;;5028769;28;20109;-61
2021/10/29 03:30:29;;;;;;;33.83;13.18;;;;;;;;;;5072793;28;20024;-59
2021/10/29 03:32:55;;;;;;;33.08;13.75;;;;;;;;;;5059184;28;20047;-61
2021/10/29 03:35:23;;;;;;;27.85;12.85;;;;;;;;;;5071120;28;20034;-59
2021/10/29 03:46:16;;;;;;;35.47;13.18;;;;;;;;;;5069166;28;20036;-60
2021/10/29 03:48:43;;;;;;;33.92;13.35;;;;;;;;;;5067208;28;20092;-61
2021/10/29 03:51:15;;;;;;;27.08;12.52;;;;;;;;;;5069942;28;20876;-62
2021/10/29 03:56:16;;;;;;;33.03;13.30;;;;;;;;;;5071263;28;20036;-59
2021/10/29 03:58:42;;;;;;;30.35;13.77;;;;;;;;;;5070433;28;20055;-59
2021/10/29 04:01:08;;;;;;;25.88;12.75;;;;;;;;;;5053261;28;20028;-59
2021/10/29 04:03:34;;;;;;;33.10;14.30;;;;;;;;;;5053686;28;20074;-60
2021/10/29 04:06:00;;;;;;;34.88;14.45;;;;;;;;;;5038544;28;20114;-61
2021/10/29 04:08:28;;;;;;;38.13;13.95;;;;;;;;;;5070081;28;20113;-59
2021/10/29 04:10:56;;;;;;;29.48;13.45;;;;;;;;;;5052312;28;20038;-61
2021/10/29 04:13:21;;;;;;;28.27;12.02;;;;;;;;;;5040172;28;20069;-61
2021/10/29 04:15:49;;;;;;;25.17;11.00;;;;;;;;;;5051679;28;20036;-61
2021/10/29 04:18:16;;;;;;;27.92;12.73;;;;;;;;;;5052672;28;20035;-60
2021/10/29 04:20:42;;;;;;;30.23;13.18;;;;;;;;;;5049475;28;20068;-59
2021/10/29 04:23:10;;;;;;;30.38;14.60;;;;;;;;;;5048240;28;20075;-59
2021/10/29 04:25:35;;;;;;;33.67;13.73;;;;;;;;;;5050588;28;21297;-59
2021/10/29 04:28:08;;;;;;;27.05;12.93;;;;;;;;;;5051780;28;20030;-61
2021/10/29 04:30:36;;;;;;;;;;;;;;;;;;5050789;28;20032;-60
2021/10/29 04:33:07;;;;;;;29.63;12.60;;;;;;;;;;5052389;28;20007;-61
2021/10/29 04:35:36;;;;;;;30.58;13.30;;;;;;;;;;5047320;28;20040;-60
2021/10/29 04:38:05;;;;;;;40.33;13.05;;;;;;;;;;5051652;28;20051;-60
2021/10/29 04:40:36;;;;;;;31.15;12.60;;;;;;;;;;5048722;28;20036;-61
2021/10/29 04:43:05;;;;;;;29.63;11.05;;;;;;;;;;5033484;28;20039;-60
2021/10/29 04:45:33;;;;;;;29.50;12.85;;;;;;;;;;5050953;28;20037;-61
2021/10/29 04:47:58;;;;;;;34.25;12.35;;;;;;;;;;5039813;28;20077;-60
2021/10/29 04:50:29;;;;;;;30.65;12.68;;;;;;;;;;5047380;28;20024;-59
2021/10/29 04:52:55;;;;;;;25.80;11.80;;;;;;;;;;5051680;28;20028;-61
2021/10/29 04:55:20;;;;;;;26.80;11.73;;;;;;;;;;5049238;28;20151;-60
2021/10/29 04:57:48;;;;;;;27.70;11.85;;;;;;;;;;5049573;28;20031;-60
2021/10/29 05:00:14;;;;;;;24.42;11.70;;;;;;;;;;5031484;28;20564;-58
2021/10/29 05:02:39;;;;;;;25.23;12.23;;;;;;;;;;5050182;28;20040;-60
2021/10/29 05:05:10;;;;;;;28.92;11.18;;;;;;;;;;5035551;28;20036;-61
2021/10/29 05:07:35;;;;;;;29.13;12.00;;;;;;;;;;5051637;28;20035;-61
2021/10/29 05:10:02;;;;;;;30.30;12.95;;;;;;;;;;5055270;28;20035;-61
2021/10/29 05:12:28;;;;;;;24.25;12.60;;;;;;;;;;5042503;28;20040;-59
2021/10/29 05:14:54;;;;;;;25.65;12.60;;;;;;;;;;5048841;28;20025;-60
2021/10/29 05:17:22;;;;;;;31.05;11.68;;;;;;;;;;5054096;28;20634;-60
2021/10/29 05:19:48;;;;;;;28.42;11.75;;;;;;;;;;5053140;28;20034;-61
2021/10/29 05:22:15;;;;;;;26.23;12.52;;;;;;;;;;5051416;28;20040;-60
2021/10/29 05:24:41;;;;;;;29.23;12.65;;;;;;;;;;5053008;28;20028;-61
2021/10/29 05:27:12;;;;;;;26.45;11.27;;;;;;;;;;5054593;28;20051;-60
2021/10/29 05:29:38;;;;;;;38.15;15.77;;;;;;;;;;5040011;28;20036;-60
2021/10/29 05:32:03;;;;;;;26.98;11.98;;;;;;;;;;5054575;28;20193;-61
2021/10/29 05:34:34;;;;;;;29.52;11.48;;;;;;;;;;5068673;28;20603;-61
2021/10/29 05:37:00;;;;;;;26.48;11.98;;;;;;;;;;5052639;28;20107;-60
2021/10/29 05:39:26;;;;;;;21.77;11.23;;;;;;;;;;5053591;28;20063;-60
2021/10/29 05:41:54;;;;;;;27.38;11.45;;;;;;;;;;5051030;28;20123;-61
2021/10/29 05:44:22;;;;;;;27.50;13.02;;;;;;;;;;5016767;28;21015;-60
2021/10/29 05:46:48;;;;;;;23.45;12.02;;;;;;;;;;5050387;28;20378;-60
2021/10/29 05:49:15;;;;;;;31.02;12.52;;;;;;;;;;5052347;28;20037;-60
2021/10/29 05:51:49;;;;;;;32.47;11.63;;;;;;;;;;5051832;28;20171;-60
2021/10/29 05:54:50;;;;;;;38.65;12.10;;;;;;;;;;5055851;28;20044;-61
2021/10/29 05:57:08;;;;;;;25.23;10.85;;;;;;;;;;5050709;28;20116;-60
2021/10/29 05:59:35;;;;;;;25.42;11.40;;;;;;;;;;5052058;28;20043;-62
2021/10/29 06:02:03;;;;;;;25.35;12.25;;;;;;;;;;5050556;28;20036;-61
2021/10/29 06:04:31;;;;;;;34.10;12.10;;;;;;;;;;5033417;28;20032;-60
2021/10/29 06:06:59;;;;;;;28.42;12.13;;;;;;;;;;5054250;28;20035;-61
2021/10/29 06:09:29;;;;;;;24.85;11.82;;;;;;;;;;5056145;28;20028;-63
2021/10/29 06:11:57;;;;;;;26.58;11.50;;;;;;;;;;5048532;28;20028;-61
2021/10/29 06:14:27;;;;;;;27.60;12.50;;;;;;;;;;5048370;28;20033;-61
2021/10/29 06:16:57;;;;;;;28.05;11.45;;;;;;;;;;5066707;28;20025;-61
2021/10/29 06:19:26;;;;;;;26.55;11.13;;;;;;;;;;5050236;28;20028;-61
2021/10/29 06:22:39;;;;;;;25.88;11.45;;;;;;;;;;5048821;28;20040;-60
2021/10/29 06:24:42;;;;;;;31.15;12.00;;;;;;;;;;5048866;28;20058;-60
2021/10/29 06:29:40;;;;;;;25.52;11.40;;;;;;;;;;5050847;28;20060;-61
2021/10/29 06:32:06;;;;;;;25.15;10.45;;;;;;;;;;5052875;28;20117;-61
2021/10/29 06:34:34;;;;;;;24.25;10.65;;;;;;;;;;5031182;28;20016;-62
2021/10/29 06:37:02;;;;;;;24.48;11.00;;;;;;;;;;5039882;28;20455;-59
2021/10/29 06:39:34;;;;;;;20.83;10.30;;;;;;;;;;5051719;28;20809;-60
2021/10/29 06:42:05;;;;;;;25.77;11.00;;;;;;;;;;5048824;28;20063;-60
2021/10/29 07:41:15;;;;;;;17.73;8.77;;;;;;;;;;5068164;28;21987;-59
2021/10/29 07:43:52;;;;;;;25.40;7.88;;;;;;;;;;5050131;28;20042;-60
2021/10/29 07:46:22;;;;;;;14.52;8.40;;;;;;;;;;5050616;28;20036;-59
2021/10/29 07:48:50;;;;;;;16.60;8.30;;;;;;;;;;5051673;28;20036;-61
2021/10/29 07:51:19;;;;;;;17.15;9.00;;;;;;;;;;5050645;28;20028;-61
2021/10/29 07:53:45;;;;;;;15.68;6.97;;;;;;;;;;5052843;28;20032;-59
2021/10/29 07:56:16;;;;;;;17.45;8.10;;;;;;;;;;5049366;28;20952;-59
2021/10/29 07:58:46;;;;;;;16.40;7.80;;;;;;;;;;5051387;28;20136;-59
2021/10/29 08:01:16;;;;;;;14.05;8.00;;;;;;;;;;5050293;28;21098;-60
2021/10/29 08:03:42;;;;;;;14.65;7.53;;;;;;;;;;5065974;28;20040;-60
2021/10/29 08:06:10;;;;;;;16.33;7.20;;;;;;;;;;5051792;28;22059;-60
2021/10/29 08:08:38;;;;;;;12.15;7.13;;;;;;;;;;5050437;28;20496;-60
2021/10/29 08:11:07;;;;;;;17.48;7.55;;;;;;;;;;5049715;28;20028;-60
2021/10/29 08:13:37;;;;;;;20.38;7.30;;;;;;;;;;5049640;28;20058;-59
2021/10/29 08:16:05;;;;;;;17.70;7.95;;;;;;;;;;5018151;28;20040;-60
2021/10/29 08:18:33;;;;;;;12.18;6.55;;;;;;;;;;5050964;28;20089;-61
2021/10/29 08:20:58;;;;;;;12.02;6.90;;;;;;;;;;5044255;28;20052;-61
2021/10/29 08:23:27;;;;;;;14.27;6.32;;;;;;;;;;5035551;28;20025;-61
2021/10/29 08:25:55;;;;;;;13.43;7.68;;;;;;;;;;5033190;28;20035;-60
2021/10/29 08:28:25;;;;;;;14.27;7.30;;;;;;;;;;5029909;28;20199;-61
2021/10/29 08:30:53;;;;;;;10.02;6.43;;;;;;;;;;5032375;28;20028;-60
2021/10/29 08:33:19;;;;;;;13.20;6.28;;;;;;;;;;5030451;28;20033;-61
2021/10/29 08:35:47;;;;;;;12.40;5.47;;;;;;;;;;5031757;28;20033;-60
2021/10/29 08:38:16;;;;;;;10.85;5.75;;;;;;;;;;5031714;28;20796;-59
2021/10/29 08:40:44;;;;;;;12.68;5.40;;;;;;;;;;5033052;28;20241;-61
2021/10/29 08:43:15;;;;;;;10.40;5.10;;;;;;;;;;5019489;28;20069;-59
2021/10/29 08:45:43;;;;;;;11.50;4.93;;;;;;;;;;5034618;28;20044;-61
2021/10/29 08:48:11;;;;;;;11.75;5.65;;;;;;;;;;5036003;28;20047;-61
2021/10/29 08:50:42;;;;;;;9.63;4.30;;;;;;;;;;5035681;28;20419;-60
2021/10/29 08:53:10;;;;;;;6.65;4.97;;;;;;;;;;5033054;28;20036;-61
2021/10/29 08:55:40;;;;;;;10.70;5.43;;;;;;;;;;5035860;28;20103;-61
2021/10/29 08:58:09;;;;;;;12.05;4.32;;;;;;;;;;5036361;28;20032;-61
2021/10/29 09:00:39;;;;;;;8.93;4.82;;;;;;;;;;5034699;28;20036;-61
2021/10/29 09:03:20;;;;;;;11.30;5.07;;;;;;;;;;5036949;28;20049;-62
2021/10/29 09:06:02;;;;;;;12.70;4.53;;;;;;;;;;5034087;28;20028;-60
2021/10/29 09:09:07;;;;;;;9.93;4.10;;;;;;;;;;5033270;28;20658;-61
2021/10/29 09:33:54;;;;;;;8.30;4.07;;;;;;;;;;5034975;28;20067;-61
2021/10/29 09:36:41;;;;;;;7.40;4.25;;;;;;;;;;5033763;28;20929;-62
2021/10/29 09:39:22;;;;;;;8.00;4.22;;;;;;;;;;5031109;28;20029;-61
2021/10/29 09:42:12;;;;;;;10.80;4.50;;;;;;;;;;5020959;28;20163;-60
2021/10/29 09:44:48;;;;;;;8.65;4.15;;;;;;;;;;5025365;28;20029;-61
2021/10/29 09:47:23;;;;;;;6.10;3.88;;;;;;;;;;5035389;28;20032;-63
2021/10/29 09:57:28;;;;;;;5.20;3.70;;;;;;;;;;5035393;28;20031;-62
2021/10/29 10:00:02;;;;;;;9.13;3.75;;;;;;;;;;5032773;28;20033;-61
2021/10/29 10:02:32;;;;;;;8.25;4.03;;;;;;;;;;5032872;28;20033;-62
2021/10/29 10:05:04;;;;;;;8.18;3.35;;;;;;;;;;5032102;28;20105;-62
2021/10/29 10:07:34;;;;;;;9.10;3.67;;;;;;;;;;5050351;28;20733;-62
2021/10/29 10:10:03;;;;;;;7.07;3.72;;;;;;;;;;5034138;28;21033;-63
2021/10/29 10:12:33;;;;;;;9.45;3.67;;;;;;;;;;5036778;28;20021;-62
2021/10/29 10:15:04;;;;;;;7.20;3.78;;;;;;;;;;5033662;28;20031;-62
2021/10/29 10:17:32;;;;;;;5.30;3.28;;;;;;;;;;5032420;28;20033;-62
2021/10/29 10:19:59;;;;;;;9.63;3.70;;;;;;;;;;5029324;28;20124;-62
2021/10/29 10:22:27;;;;;;;8.45;3.33;;;;;;;;;;5072745;28;20123;-62
2021/10/29 10:25:09;;;;;;;11.30;4.00;;;;;;;;;;5043290;28;20119;-62
2021/10/29 10:43:55;;;;;;;6.55;2.80;;;;;;;;;;5054888;28;20930;-65
2021/10/29 10:46:23;;;;;;;5.75;3.42;;;;;;;;;;5055284;28;20032;-62
2021/10/29 11:05:37;;;;;;;5.85;2.83;;;;;;;;;;5069890;28;20042;-61
2021/10/29 11:11:13;;;;;;;7.40;3.22;;;;;;;;;;5049060;28;20054;-61
2021/10/29 11:13:47;;;;;;;5.57;2.78;;;;;;;;;;5072712;28;20042;-63
2021/10/29 11:16:14;;;;;;;3.60;2.53;;;;;;;;;;5069256;28;20193;-61
2021/10/29 11:18:50;;;;;;;6.90;2.83;;;;;;;;;;5072954;28;20028;-60
2021/10/29 11:21:19;;;;;;;3.85;2.40;;;;;;;;;;5054956;28;20094;-61
2021/10/29 11:23:56;;;;;;;6.50;2.75;;;;;;;;;;5053223;28;20055;-62
2021/10/29 11:26:25;;;;;;;9.80;2.95;;;;;;;;;;5054119;28;20064;-62
2021/10/29 11:28:52;;;;;;;10.23;2.90;;;;;;;;;;5041436;28;20056;-61
2021/10/29 11:31:30;;;;;;;5.13;2.40;;;;;;;;;;5052478;28;20115;-61
2021/10/29 11:33:58;;;;;;;6.35;2.60;;;;;;;;;;5068991;28;20023;-62
2021/10/29 11:36:28;;;;;;;4.25;2.47;;;;;;;;;;5050860;28;20030;-61
2021/10/29 11:38:57;;;;;;;6.60;2.47;;;;;;;;;;5070782;28;20035;-61
2021/10/29 11:41:26;;;;;;;11.25;2.95;;;;;;;;;;5068687;28;20024;-64
2021/10/29 11:43:57;;;;;;;6.38;2.33;;;;;;;;;;5072559;28;20054;-64
2021/10/29 11:46:26;;;;;;;4.53;2.25;;;;;;;;;;5068236;28;20036;-62
2021/10/29 11:48:52;;;;;;;3.45;2.42;;;;;;;;;;5053040;28;20433;-60
2021/10/29 11:51:21;;;;;;;6.82;2.70;;;;;;;;;;5068466;28;20036;-62
2021/10/29 11:53:55;;;;;;;5.63;2.28;;;;;;;;;;5037462;28;20032;-62
2021/10/29 11:56:41;;;;;;;4.32;2.47;;;;;;;;;;5070524;28;20036;-60
2021/10/29 12:07:23;;;;;;;7.05;2.22;;;;;;;;;;5072660;28;20115;-62
2021/10/29 12:09:52;;;;;;;6.90;2.70;;;;;;;;;;5070743;28;20040;-63
2021/10/29 12:12:22;;;;;;;5.45;2.53;;;;;;;;;;5052778;28;20422;-63
2021/10/29 12:14:55;;;;;;;6.10;2.63;;;;;;;;;;5076486;28;20035;-61
2021/10/29 12:17:30;;;;;;;4.22;2.10;;;;;;;;;;5080158;28;20063;-61
2021/10/29 12:20:07;;;;;;;5.60;2.40;;;;;;;;;;5075279;28;20023;-59
2021/10/29 12:22:38;;;;;;;9.13;2.25;;;;;;;;;;5080599;28;20110;-60
2021/10/29 12:28:24;;;;;;;6.53;2.20;;;;;;;;;;5077449;28;20259;-62
2021/10/29 13:03:57;;;;;;;8.75;2.20;;;;;;;;;;5056262;28;20040;-61
2021/10/29 13:06:26;;;;;;;3.15;2.00;;;;;;;;;;5047726;28;20024;-62
2021/10/29 13:08:52;;;;;;;6.57;2.42;;;;;;;;;;5078685;28;20124;-61
2021/10/29 13:11:20;;;;;;;7.38;2.33;;;;;;;;;;5074505;28;20035;-60
2021/10/29 13:13:54;;;;;;;4.40;2.35;;;;;;;;;;5058259;28;20043;-63
2021/10/29 13:16:21;;;;;;;6.00;2.33;;;;;;;;;;5074058;28;20158;-60
2021/10/29 13:19:03;;;;;;;4.97;2.28;;;;;;;;;;5061544;28;20057;-61
2021/10/29 13:56:27;;;;;;;5.82;2.70;;;;;;;;;;5074006;28;20032;-62
2021/10/29 14:29:20;;;;;;;7.32;2.22;;;;;;;;;;5072988;28;20405;-61
2021/10/29 14:34:18;;;;;;;7.18;2.70;;;;;;;;;;5070514;28;20344;-60
2021/10/29 14:39:28;;;;;;;4.47;2.22;;;;;;;;;;5052759;28;20112;-60
2021/10/29 14:42:08;;;;;;;4.20;2.05;;;;;;;;;;5074148;28;20019;-60
2021/10/29 14:44:43;;;;;;;4.40;2.28;;;;;;;;;;5073746;28;20033;-61
2021/10/29 14:47:31;;;;;;;6.18;2.40;;;;;;;;;;5071839;28;20660;-58
2021/10/29 15:00:48;;;;;;;3.75;2.45;;;;;;;;;;5053713;28;20099;-61
2021/10/29 15:03:36;;;;;;;3.75;2.20;;;;;;;;;;5071455;28;20040;-60
2021/10/29 15:17:30;;;;;;;6.97;2.72;;;;;;;;;;5067504;28;20115;-61
2021/10/29 15:26:14;;;;;;;7.03;2.80;;;;;;;;;;5019009;28;20083;-60
2021/10/29 15:32:07;;;;;;;7.00;2.88;;;;;;;;;;5068254;28;20051;-60
2021/10/29 15:44:33;;;;;;;4.22;2.72;;;;;;;;;;5052821;28;20752;-60
2021/10/29 15:47:01;;;;;;;6.28;2.63;;;;;;;;;;5070540;28;20036;-60
2021/10/29 15:49:37;;;;;;;4.30;2.30;;;;;;;;;;5035933;28;20028;-59
2021/10/29 15:52:14;;;;;;;7.28;3.00;;;;;;;;;;5057192;28;20035;-60
2021/10/29 15:54:48;;;;;;;4.60;2.05;;;;;;;;;;5072215;28;20024;-60
2021/10/29 15:57:22;;;;;;;7.22;2.47;;;;;;;;;;5055585;28;20057;-60
2021/10/29 16:00:06;;;;;;;6.38;2.45;;;;;;;;;;5058073;28;20097;-60
2021/10/29 16:02:49;;;;;;;5.60;2.47;;;;;;;;;;5052521;28;20036;-60
2021/10/29 16:19:00;;;;;;;5.53;2.88;;;;;;;;;;5056518;28;20101;-59
2021/10/29 16:21:28;;;;;;;4.85;2.63;;;;;;;;;;5036005;28;20139;-60
2021/10/29 16:23:56;;;;;;;8.63;2.70;;;;;;;;;;5072672;28;20786;-59
2021/10/29 16:26:23;;;;;;;11.45;3.70;;;;;;;;;;5050683;28;20032;-60
2021/10/29 16:28:54;;;;;;;7.85;3.20;;;;;;;;;;5025345;28;20071;-60
2021/10/29 16:31:21;;;;;;;5.50;3.28;;;;;;;;;;5037641;28;20031;-60
2021/10/29 16:33:49;;;;;;;5.72;3.35;;;;;;;;;;5070876;28;20024;-61
2021/10/29 16:36:22;;;;;;;6.00;3.08;;;;;;;;;;5067080;28;20032;-61
2021/10/29 16:38:49;;;;;;;6.47;3.20;;;;;;;;;;5071332;28;20032;-61
2021/10/29 16:41:16;;;;;;;5.60;3.92;;;;;;;;;;5067802;28;20064;-59
2021/10/29 16:43:42;;;;;;;9.73;3.92;;;;;;;;;;5034745;28;20120;-62
2021/10/29 16:46:07;;;;;;;4.90;3.17;;;;;;;;;;5035986;28;20036;-59
2021/10/29 16:48:40;;;;;;;11.00;3.83;;;;;;;;;;5071837;28;20031;-59
2021/10/29 16:51:08;;;;;;;8.23;2.97;;;;;;;;;;5052762;28;20425;-60
2021/10/29 16:53:33;;;;;;;9.55;3.00;;;;;;;;;;5071295;28;20034;-60
2021/10/29 16:55:59;;;;;;;6.80;2.55;;;;;;;;;;5037662;28;20040;-61
2021/10/29 16:58:29;;;;;;;4.63;2.92;;;;;;;;;;5064802;28;20708;-61
2021/10/29 17:01:00;;;;;;;7.78;3.30;;;;;;;;;;5059196;28;20102;-62
2021/10/29 17:03:28;;;;;;;4.45;2.45;;;;;;;;;;5055240;28;20125;-61
2021/10/29 17:05:55;;;;;;;7.63;3.05;;;;;;;;;;5073380;28;20024;-60
2021/10/29 17:08:28;;;;;;;4.43;2.60;;;;;;;;;;5041489;28;20043;-62
2021/10/29 17:10:56;;;;;;;11.13;2.88;;;;;;;;;;5071541;28;20064;-60
2021/10/29 17:13:21;;;;;;;4.85;2.50;;;;;;;;;;5074478;28;20077;-61
2021/10/29 17:15:50;;;;;;;7.00;2.58;;;;;;;;;;5074320;28;20236;-61
2021/10/29 17:18:15;;;;;;;8.45;2.92;;;;;;;;;;5061259;28;20035;-61
2021/10/29 17:20:43;;;;;;;4.57;2.50;;;;;;;;;;5039257;28;20040;-61
2021/10/29 17:23:11;;;;;;;4.70;2.60;;;;;;;;;;5052325;28;20125;-60
2021/10/29 17:25:44;;;;;;;4.85;2.72;;;;;;;;;;5056370;28;20100;-61
2021/10/29 17:28:11;;;;;;;5.47;2.80;;;;;;;;;;5056881;28;20035;-62
2021/10/29 17:30:37;;;;;;;5.53;2.90;;;;;;;;;;5054619;28;20059;-59
2021/10/29 17:33:05;;;;;;;6.95;3.05;;;;;;;;;;5056758;28;20539;-62
2021/10/29 17:35:32;;;;;;;6.47;2.70;;;;;;;;;;5054868;28;20028;-62
2021/10/29 17:37:59;;;;;;;5.72;3.13;;;;;;;;;;5074516;28;20476;-61
2021/10/29 17:40:25;;;;;;;4.78;3.05;;;;;;;;;;5055102;28;20131;-62
2021/10/29 17:42:53;;;;;;;8.00;2.97;;;;;;;;;;5074122;28;20039;-61
2021/10/29 17:45:21;;;;;;;5.43;2.85;;;;;;;;;;5071953;28;20367;-61
2021/10/29 17:47:48;;;;;;;7.43;2.83;;;;;;;;;;5054087;28;20998;-61
2021/10/29 17:50:15;;;;;;;5.30;3.00;;;;;;;;;;5071867;28;20058;-59
2021/10/29 17:52:41;;;;;;;5.68;2.95;;;;;;;;;;5075392;28;20071;-61
2021/10/29 17:55:11;;;;;;;7.93;3.42;;;;;;;;;;5072053;28;20499;-62
2021/10/29 17:57:39;;;;;;;8.80;3.55;;;;;;;;;;5055070;28;22071;-60
2021/10/29 18:00:08;;;;;;;7.75;3.08;;;;;;;;;;5073484;28;20028;-59
2021/10/29 18:02:33;;;;;;;7.75;3.45;;;;;;;;;;5074378;28;20039;-60
2021/10/29 18:04:59;;;;;;;8.07;3.28;;;;;;;;;;5074886;28;20038;-62
2021/10/29 18:07:28;;;;;;;12.10;3.95;;;;;;;;;;5073226;28;20043;-59
2021/10/29 18:09:56;;;;;;;10.65;3.95;;;;;;;;;;5055228;28;20770;-60
2021/10/29 18:12:22;;;;;;;5.45;3.22;;;;;;;;;;5057317;28;20155;-60
2021/10/29 18:14:53;;;;;;;5.70;3.70;;;;;;;;;;5053890;28;20076;-60
2021/10/29 18:17:19;;;;;;;8.43;4.38;;;;;;;;;;5056674;28;20078;-61
2021/10/29 18:19:44;;;;;;;8.55;4.03;;;;;;;;;;5036029;28;22108;-60
2021/10/29 18:22:18;;;;;;;12.40;4.18;;;;;;;;;;5052360;28;20048;-61
2021/10/29 18:24:43;;;;;;;8.27;4.07;;;;;;;;;;5053890;28;20033;-60
2021/10/29 18:27:11;;;;;;;11.88;4.80;;;;;;;;;;5053559;28;20138;-61
2021/10/29 18:29:38;;;;;;;7.15;3.80;;;;;;;;;;5054780;28;20036;-60
2021/10/29 18:32:07;;;;;;;7.88;3.55;;;;;;;;;;5051280;28;20033;-61
2021/10/29 18:34:32;;;;;;;11.00;3.40;;;;;;;;;;5049328;28;20628;-60
2021/10/29 18:37:01;;;;;;;5.65;3.65;;;;;;;;;;5053784;28;20028;-60
2021/10/29 18:39:26;;;;;;;9.90;3.65;;;;;;;;;;5032676;28;20913;-60
2021/10/29 18:41:54;;;;;;;8.10;3.75;;;;;;;;;;5052861;28;20057;-61
2021/10/29 18:44:22;;;;;;;8.35;4.05;;;;;;;;;;5051793;28;20590;-62
2021/10/29 18:46:50;;;;;;;8.93;3.50;;;;;;;;;;5046970;28;20037;-59
2021/10/29 18:49:18;;;;;;;14.07;3.42;;;;;;;;;;5065505;28;20051;-62
2021/10/29 18:51:44;;;;;;;4.13;3.08;;;;;;;;;;5035382;28;20052;-62
2021/10/29 18:54:11;;;;;;;8.30;3.70;;;;;;;;;;5046823;28;20036;-63
2021/10/29 18:56:40;;;;;;;8.18;3.45;;;;;;;;;;5050297;28;20787;-61
2021/10/29 18:59:06;;;;;;;9.65;2.97;;;;;;;;;;5048054;28;20044;-63
2021/10/29 19:01:34;;;;;;;14.10;3.78;;;;;;;;;;5033722;28;20024;-60
2021/10/29 19:04:00;;;;;;;7.30;3.00;;;;;;;;;;5049825;28;20055;-61
2021/10/29 19:06:26;;;;;;;10.82;4.15;;;;;;;;;;5048830;28;20038;-62
2021/10/29 19:08:52;;;;;;;7.45;3.40;;;;;;;;;;5039407;28;20040;-61
2021/10/29 19:11:18;;;;;;;5.30;2.70;;;;;;;;;;5048614;28;20031;-61
2021/10/29 19:13:44;;;;;;;9.25;3.25;;;;;;;;;;5033698;28;20506;-61
2021/10/29 19:16:14;;;;;;;6.93;2.35;;;;;;;;;;5049965;28;20076;-60
2021/10/29 19:18:40;;;;;;;7.22;2.67;;;;;;;;;;5049182;28;20035;-62
2021/10/29 19:21:08;;;;;;;9.23;3.42;;;;;;;;;;5052220;28;20492;-62
2021/10/29 19:23:33;;;;;;;5.20;3.15;;;;;;;;;;5071077;28;20090;-62
2021/10/29 19:26:01;;;;;;;10.55;2.83;;;;;;;;;;5058128;28;20134;-60
2021/10/29 19:28:29;;;;;;;7.50;3.20;;;;;;;;;;5054540;28;20051;-62
2021/10/29 19:30:55;;;;;;;5.55;2.70;;;;;;;;;;5052330;28;20119;-61
2021/10/29 19:33:21;;;;;;;7.55;2.97;;;;;;;;;;5054565;28;20028;-60
2021/10/29 19:35:53;;;;;;;5.43;2.65;;;;;;;;;;5070493;28;20124;-61
2021/10/29 19:38:23;;;;;;;9.63;2.63;;;;;;;;;;5072017;28;20070;-61
2021/10/29 19:40:51;;;;;;;4.38;2.20;;;;;;;;;;5071064;28;20024;-61
2021/10/29 19:43:17;;;;;;;7.85;2.85;;;;;;;;;;5053853;28;20506;-62
2021/10/29 19:45:45;;;;;;;4.50;2.20;;;;;;;;;;5071667;28;20031;-61
2021/10/29 19:48:12;;;;;;;3.75;2.33;;;;;;;;;;5053027;28;20036;-63